sensor_id;sensor_type;location;lat;lon;timestamp;temperature;humidity
17053;DHT22;8643;48.824;11.422;2022-10-03T00:00:00;10.10;99.90
17053;DHT22;8643;48.824;11.422;2022-10-03T00:08:55;10.00;99.90
17053;DHT22;8643;48.824;11.422;2022-10-03T00:14:29;10.00;99.90
17053;DHT22;8643;48.824;11.422;2022-10-03T00:19:49;10.20;99.90
17053;DHT22;8643;48.824;11.422;2022-10-03T00:25:19;10.20;99.90
17053;DHT22;8643;48.824;11.422;2022-10-03T00:28:09;10.20;99.90
17053;DHT22;8643;48.824;11.422;2022-10-03T00:30:53;10.30;99.90
17053;DHT22;8643;48.824;11.422;2022-10-03T00:36:23;10.20;99.90
17053;DHT22;8643;48.824;11.422;2022-10-03T00:58:02;10.30;99.90
17053;DHT22;8643;48.824;11.422;2022-10-03T01:00:48;10.30;99.90
17053;DHT22;8643;48.824;11.422;2022-10-03T01:03:30;10.30;99.90
17053;DHT22;8643;48.824;11.422;2022-10-03T01:09:19;10.20;99.90
17053;DHT22;8643;48.824;11.422;2022-10-03T01:12:05;10.00;99.90
17053;DHT22;8643;48.824;11.422;2022-10-03T01:14:55;9.90;99.90
17053;DHT22;8643;48.824;11.422;2022-10-03T01:17:45;9.80;99.90
17053;DHT22;8643;48.824;11.422;2022-10-03T01:20:33;9.80;99.90
17053;DHT22;8643;48.824;11.422;2022-10-03T01:26:21;9.70;99.90
17053;DHT22;8643;48.824;11.422;2022-10-03T01:31:58;9.70;99.90
17053;DHT22;8643;48.824;11.422;2022-10-03T01:42:34;9.80;99.90
17053;DHT22;8643;48.824;11.422;2022-10-03T01:45:22;9.80;99.90
17053;DHT22;8643;48.824;11.422;2022-10-03T01:47:59;9.70;99.90
17053;DHT22;8643;48.824;11.422;2022-10-03T01:50:35;9.80;99.90
17053;DHT22;8643;48.824;11.422;2022-10-03T01:53:15;9.80;99.90
17053;DHT22;8643;48.824;11.422;2022-10-03T01:55:58;9.90;99.90
17053;DHT22;8643;48.824;11.422;2022-10-03T01:58:41;9.90;99.90
17053;DHT22;8643;48.824;11.422;2022-10-03T02:06:46;9.90;99.90
17053;DHT22;8643;48.824;11.422;2022-10-03T02:09:27;9.90;99.90
17053;DHT22;8643;48.824;11.422;2022-10-03T02:12:11;10.00;99.90
17053;DHT22;8643;48.824;11.422;2022-10-03T02:14:52;10.00;99.90
17053;DHT22;8643;48.824;11.422;2022-10-03T02:20:24;10.90;99.90
17053;DHT22;8643;48.824;11.422;2022-10-03T02:23:21;10.00;99.90
17053;DHT22;8643;48.824;11.422;2022-10-03T02:26:00;9.90;99.90
17053;DHT22;8643;48.824;11.422;2022-10-03T02:29:01;9.80;99.90
17053;DHT22;8643;48.824;11.422;2022-10-03T02:38:17;9.90;99.90
17053;DHT22;8643;48.824;11.422;2022-10-03T02:41:20;9.90;99.90
17053;DHT22;8643;48.824;11.422;2022-10-03T02:44:20;9.90;99.90
17053;DHT22;8643;48.824;11.422;2022-10-03T02:50:42;9.90;99.90
17053;DHT22;8643;48.824;11.422;2022-10-03T02:53:42;9.80;99.90
17053;DHT22;8643;48.824;11.422;2022-10-03T02:56:48;9.70;99.90
17053;DHT22;8643;48.824;11.422;2022-10-03T03:00:11;9.70;99.90
17053;DHT22;8643;48.824;11.422;2022-10-03T03:03:05;9.70;99.90
17053;DHT22;8643;48.824;11.422;2022-10-03T03:09:21;9.90;99.90
17053;DHT22;8643;48.824;11.422;2022-10-03T03:18:24;9.90;99.90
17053;DHT22;8643;48.824;11.422;2022-10-03T03:21:26;10.00;99.90
17053;DHT22;8643;48.824;11.422;2022-10-03T03:24:18;10.00;99.90
17053;DHT22;8643;48.824;11.422;2022-10-03T03:30:02;10.10;99.90
17053;DHT22;8643;48.824;11.422;2022-10-03T03:32:47;10.20;99.90
17053;DHT22;8643;48.824;11.422;2022-10-03T03:38:19;10.20;99.90
17053;DHT22;8643;48.824;11.422;2022-10-03T03:41:09;10.20;99.90
17053;DHT22;8643;48.824;11.422;2022-10-03T03:44:10;10.30;99.90
17053;DHT22;8643;48.824;11.422;2022-10-03T03:47:11;10.30;99.90
17053;DHT22;8643;48.824;11.422;2022-10-03T03:50:03;10.20;99.90
17053;DHT22;8643;48.824;11.422;2022-10-03T03:53:10;10.30;99.90
17053;DHT22;8643;48.824;11.422;2022-10-03T04:04:44;10.20;99.90
17053;DHT22;8643;48.824;11.422;2022-10-03T04:07:37;10.00;99.90
17053;DHT22;8643;48.824;11.422;2022-10-03T04:13:17;9.80;99.90
17053;DHT22;8643;48.824;11.422;2022-10-03T04:25:29;9.40;99.90
17053;DHT22;8643;48.824;11.422;2022-10-03T04:37:11;9.30;99.90
17053;DHT22;8643;48.824;11.422;2022-10-03T04:48:12;9.10;99.90
17053;DHT22;8643;48.824;11.422;2022-10-03T04:50:51;9.10;99.90
17053;DHT22;8643;48.824;11.422;2022-10-03T04:53:40;9.00;99.90
17053;DHT22;8643;48.824;11.422;2022-10-03T04:59:07;8.90;99.90
17053;DHT22;8643;48.824;11.422;2022-10-03T05:01:56;9.00;99.90
17053;DHT22;8643;48.824;11.422;2022-10-03T05:07:15;8.80;99.90
17053;DHT22;8643;48.824;11.422;2022-10-03T05:17:59;9.00;99.90
17053;DHT22;8643;48.824;11.422;2022-10-03T05:20:45;9.00;99.90
17053;DHT22;8643;48.824;11.422;2022-10-03T05:23:31;9.10;99.90
17053;DHT22;8643;48.824;11.422;2022-10-03T05:26:20;9.10;99.90
17053;DHT22;8643;48.824;11.422;2022-10-03T05:32:08;9.30;99.90
17053;DHT22;8643;48.824;11.422;2022-10-03T05:35:16;9.30;99.90
17053;DHT22;8643;48.824;11.422;2022-10-03T05:38:17;9.20;99.90
17053;DHT22;8643;48.824;11.422;2022-10-03T05:41:02;10.10;99.90
17053;DHT22;8643;48.824;11.422;2022-10-03T05:43:45;9.00;99.90
17053;DHT22;8643;48.824;11.422;2022-10-03T05:46:48;9.00;99.90
17053;DHT22;8643;48.824;11.422;2022-10-03T05:52:49;8.90;99.90
17053;DHT22;8643;48.824;11.422;2022-10-03T05:55:35;8.70;99.90
17053;DHT22;8643;48.824;11.422;2022-10-03T05:58:32;8.70;99.90
17053;DHT22;8643;48.824;11.422;2022-10-03T06:16:37;8.70;99.90
17053;DHT22;8643;48.824;11.422;2022-10-03T06:19:19;8.80;99.90
17053;DHT22;8643;48.824;11.422;2022-10-03T06:25:36;9.20;99.90
17053;DHT22;8643;48.824;11.422;2022-10-03T06:28:44;9.50;99.90
17053;DHT22;8643;48.824;11.422;2022-10-03T06:38:52;10.10;99.90
17053;DHT22;8643;48.824;11.422;2022-10-03T06:49:33;10.90;99.90
17053;DHT22;8643;48.824;11.422;2022-10-03T06:52:45;11.10;99.90
17053;DHT22;8643;48.824;11.422;2022-10-03T06:55:48;11.40;99.90
17053;DHT22;8643;48.824;11.422;2022-10-03T06:58:52;11.80;99.90
17053;DHT22;8643;48.824;11.422;2022-10-03T07:14:52;13.10;99.90
17053;DHT22;8643;48.824;11.422;2022-10-03T07:17:48;13.40;99.90
17053;DHT22;8643;48.824;11.422;2022-10-03T07:20:57;13.80;99.90
17053;DHT22;8643;48.824;11.422;2022-10-03T07:23:57;14.10;99.90
17053;DHT22;8643;48.824;11.422;2022-10-03T07:27:16;14.00;99.90
17053;DHT22;8643;48.824;11.422;2022-10-03T07:30:08;13.90;99.90
17053;DHT22;8643;48.824;11.422;2022-10-03T07:36:30;13.30;99.90
17053;DHT22;8643;48.824;11.422;2022-10-03T07:40:00;13.10;99.90
17053;DHT22;8643;48.824;11.422;2022-10-03T07:49:28;12.50;99.90
17053;DHT22;8643;48.824;11.422;2022-10-03T07:52:37;12.40;99.90
17053;DHT22;8643;48.824;11.422;2022-10-03T07:55:26;12.30;99.90
17053;DHT22;8643;48.824;11.422;2022-10-03T07:58:34;12.30;99.90
17053;DHT22;8643;48.824;11.422;2022-10-03T08:01:38;12.30;99.90
17053;DHT22;8643;48.824;11.422;2022-10-03T08:04:38;12.30;99.90
17053;DHT22;8643;48.824;11.422;2022-10-03T08:07:51;12.50;99.90
17053;DHT22;8643;48.824;11.422;2022-10-03T08:17:05;12.30;99.90
17053;DHT22;8643;48.824;11.422;2022-10-03T08:20:14;12.50;99.90
17053;DHT22;8643;48.824;11.422;2022-10-03T08:29:02;13.20;99.90
17053;DHT22;8643;48.824;11.422;2022-10-03T08:35:20;12.50;99.90
17053;DHT22;8643;48.824;11.422;2022-10-03T08:38:24;12.40;99.90
17053;DHT22;8643;48.824;11.422;2022-10-03T08:51:14;13.50;99.90
17053;DHT22;8643;48.824;11.422;2022-10-03T09:00:52;15.90;99.90
17053;DHT22;8643;48.824;11.422;2022-10-03T09:04:06;15.10;99.90
17053;DHT22;8643;48.824;11.422;2022-10-03T09:07:17;14.90;99.90
17053;DHT22;8643;48.824;11.422;2022-10-03T09:10:23;15.30;99.90
17053;DHT22;8643;48.824;11.422;2022-10-03T09:13:43;15.00;99.90
17053;DHT22;8643;48.824;11.422;2022-10-03T09:19:59;14.30;99.90
17053;DHT22;8643;48.824;11.422;2022-10-03T09:23:12;15.10;99.90
17053;DHT22;8643;48.824;11.422;2022-10-03T09:26:29;16.30;99.90
17053;DHT22;8643;48.824;11.422;2022-10-03T09:36:01;18.50;99.90
17053;DHT22;8643;48.824;11.422;2022-10-03T09:39:08;17.30;99.90
17053;DHT22;8643;48.824;11.422;2022-10-03T09:42:18;16.30;99.90
17053;DHT22;8643;48.824;11.422;2022-10-03T09:49:24;15.20;99.90
17053;DHT22;8643;48.824;11.422;2022-10-03T09:52:23;15.10;99.90
17053;DHT22;8643;48.824;11.422;2022-10-03T09:55:24;16.30;99.90
17053;DHT22;8643;48.824;11.422;2022-10-03T09:58:38;17.10;99.90
17053;DHT22;8643;48.824;11.422;2022-10-03T10:01:28;16.70;99.90
17053;DHT22;8643;48.824;11.422;2022-10-03T10:08:03;14.80;99.90
17053;DHT22;8643;48.824;11.422;2022-10-03T10:11:08;15.90;99.90
17053;DHT22;8643;48.824;11.422;2022-10-03T10:14:09;15.80;99.90
17053;DHT22;8643;48.824;11.422;2022-10-03T10:17:22;15.70;99.90
17053;DHT22;8643;48.824;11.422;2022-10-03T10:21:02;15.20;99.90
17053;DHT22;8643;48.824;11.422;2022-10-03T10:24:21;14.60;99.90
17053;DHT22;8643;48.824;11.422;2022-10-03T10:27:45;14.20;99.90
17053;DHT22;8643;48.824;11.422;2022-10-03T10:31:01;14.50;99.90
17053;DHT22;8643;48.824;11.422;2022-10-03T10:34:25;15.20;99.90
17053;DHT22;8643;48.824;11.422;2022-10-03T10:41:19;17.00;99.90
17053;DHT22;8643;48.824;11.422;2022-10-03T10:47:58;16.30;99.90
17053;DHT22;8643;48.824;11.422;2022-10-03T10:54:49;15.20;99.90
17053;DHT22;8643;48.824;11.422;2022-10-03T11:01:37;14.40;99.90
17053;DHT22;8643;48.824;11.422;2022-10-03T11:12:49;15.30;99.90
17053;DHT22;8643;48.824;11.422;2022-10-03T11:16:19;17.20;99.90
17053;DHT22;8643;48.824;11.422;2022-10-03T11:26:25;18.60;90.30
17053;DHT22;8643;48.824;11.422;2022-10-03T11:33:19;16.70;92.60
17053;DHT22;8643;48.824;11.422;2022-10-03T11:36:29;16.10;99.70
17053;DHT22;8643;48.824;11.422;2022-10-03T11:39:22;15.80;98.50
17053;DHT22;8643;48.824;11.422;2022-10-03T11:42:03;15.90;99.70
17053;DHT22;8643;48.824;11.422;2022-10-03T11:44:41;15.60;99.90
17053;DHT22;8643;48.824;11.422;2022-10-03T11:47:50;15.40;99.90
17053;DHT22;8643;48.824;11.422;2022-10-03T11:50:32;15.30;99.90
17053;DHT22;8643;48.824;11.422;2022-10-03T11:53:25;15.10;99.90
17053;DHT22;8643;48.824;11.422;2022-10-03T11:56:29;14.90;99.90
17053;DHT22;8643;48.824;11.422;2022-10-03T12:02:13;14.70;99.90
17053;DHT22;8643;48.824;11.422;2022-10-03T12:04:52;15.90;99.90
17053;DHT22;8643;48.824;11.422;2022-10-03T12:07:39;17.10;99.90
17053;DHT22;8643;48.824;11.422;2022-10-03T12:10:38;17.50;99.90
17053;DHT22;8643;48.824;11.422;2022-10-03T12:13:17;18.20;99.90
17053;DHT22;8643;48.824;11.422;2022-10-03T12:15:53;17.90;98.50
17053;DHT22;8643;48.824;11.422;2022-10-03T12:18:30;17.80;95.20
17053;DHT22;8643;48.824;11.422;2022-10-03T12:21:23;17.10;96.80
17053;DHT22;8643;48.824;11.422;2022-10-03T12:24:16;16.50;96.20
17053;DHT22;8643;48.824;11.422;2022-10-03T12:26:57;16.20;96.40
17053;DHT22;8643;48.824;11.422;2022-10-03T12:29:35;15.90;99.20
17053;DHT22;8643;48.824;11.422;2022-10-03T12:32:22;15.60;97.80
17053;DHT22;8643;48.824;11.422;2022-10-03T12:35:05;15.70;99.90
17053;DHT22;8643;48.824;11.422;2022-10-03T12:37:59;15.60;99.90
17053;DHT22;8643;48.824;11.422;2022-10-03T12:40:42;15.70;99.90
17053;DHT22;8643;48.824;11.422;2022-10-03T12:43:29;16.60;99.90
17053;DHT22;8643;48.824;11.422;2022-10-03T12:48:49;18.80;99.90
17053;DHT22;8643;48.824;11.422;2022-10-03T12:54:18;16.30;99.90
17053;DHT22;8643;48.824;11.422;2022-10-03T12:57:20;16.20;99.90
17053;DHT22;8643;48.824;11.422;2022-10-03T13:00:13;16.80;98.60
17053;DHT22;8643;48.824;11.422;2022-10-03T13:03:10;17.50;99.10
17053;DHT22;8643;48.824;11.422;2022-10-03T13:09:24;19.90;90.70
17053;DHT22;8643;48.824;11.422;2022-10-03T13:12:10;20.30;89.00
17053;DHT22;8643;48.824;11.422;2022-10-03T13:15:32;20.60;85.80
17053;DHT22;8643;48.824;11.422;2022-10-03T13:24:34;20.30;81.00
17053;DHT22;8643;48.824;11.422;2022-10-03T13:27:23;19.00;86.50
17053;DHT22;8643;48.824;11.422;2022-10-03T13:32:43;17.50;87.90
17053;DHT22;8643;48.824;11.422;2022-10-03T13:38:50;19.10;88.60
17053;DHT22;8643;48.824;11.422;2022-10-03T13:41:34;19.20;84.70
17053;DHT22;8643;48.824;11.422;2022-10-03T13:44:16;18.80;87.40
17053;DHT22;8643;48.824;11.422;2022-10-03T13:46:55;18.80;91.10
17053;DHT22;8643;48.824;11.422;2022-10-03T13:49:39;18.70;85.10
17053;DHT22;8643;48.824;11.422;2022-10-03T13:52:22;18.60;90.80
17053;DHT22;8643;48.824;11.422;2022-10-03T14:01:13;16.70;93.30
17053;DHT22;8643;48.824;11.422;2022-10-03T14:04:24;16.20;95.70
17053;DHT22;8643;48.824;11.422;2022-10-03T14:07:22;16.00;97.40
17053;DHT22;8643;48.824;11.422;2022-10-03T14:10:10;16.70;99.20
17053;DHT22;8643;48.824;11.422;2022-10-03T14:12:58;17.10;96.20
17053;DHT22;8643;48.824;11.422;2022-10-03T14:15:45;17.10;97.50
17053;DHT22;8643;48.824;11.422;2022-10-03T14:18:35;16.80;96.70
17053;DHT22;8643;48.824;11.422;2022-10-03T14:24:44;16.00;99.90
17053;DHT22;8643;48.824;11.422;2022-10-03T14:27:46;15.70;99.90
17053;DHT22;8643;48.824;11.422;2022-10-03T14:33:00;15.30;99.90
17053;DHT22;8643;48.824;11.422;2022-10-03T14:35:50;15.50;99.90
17053;DHT22;8643;48.824;11.422;2022-10-03T14:38:36;16.50;99.90
17053;DHT22;8643;48.824;11.422;2022-10-03T14:41:39;17.20;98.70
17053;DHT22;8643;48.824;11.422;2022-10-03T14:46:50;16.90;98.50
17053;DHT22;8643;48.824;11.422;2022-10-03T14:49:26;16.40;99.60
17053;DHT22;8643;48.824;11.422;2022-10-03T14:57:35;15.50;99.90
17053;DHT22;8643;48.824;11.422;2022-10-03T15:06:16;15.00;99.90
17053;DHT22;8643;48.824;11.422;2022-10-03T15:08:52;15.00;99.90
17053;DHT22;8643;48.824;11.422;2022-10-03T15:11:27;14.90;99.90
17053;DHT22;8643;48.824;11.422;2022-10-03T15:14:00;15.00;99.90
17053;DHT22;8643;48.824;11.422;2022-10-03T15:16:33;15.00;99.90
17053;DHT22;8643;48.824;11.422;2022-10-03T15:19:15;15.20;99.90
17053;DHT22;8643;48.824;11.422;2022-10-03T15:21:50;15.10;99.90
17053;DHT22;8643;48.824;11.422;2022-10-03T15:24:24;14.90;99.90
17053;DHT22;8643;48.824;11.422;2022-10-03T15:27:01;14.80;99.90
17053;DHT22;8643;48.824;11.422;2022-10-03T15:29:37;15.00;99.90
17053;DHT22;8643;48.824;11.422;2022-10-03T15:34:47;15.00;99.90
17053;DHT22;8643;48.824;11.422;2022-10-03T15:37:20;14.30;99.90
17053;DHT22;8643;48.824;11.422;2022-10-03T15:39:59;14.80;99.90
17053;DHT22;8643;48.824;11.422;2022-10-03T15:42:42;14.80;99.90
17053;DHT22;8643;48.824;11.422;2022-10-03T15:45:23;14.60;99.90
17053;DHT22;8643;48.824;11.422;2022-10-03T15:47:57;14.40;99.90
17053;DHT22;8643;48.824;11.422;2022-10-03T15:50:30;14.40;99.90
17053;DHT22;8643;48.824;11.422;2022-10-03T15:53:06;14.40;99.90
17053;DHT22;8643;48.824;11.422;2022-10-03T15:56:07;14.30;99.90
17053;DHT22;8643;48.824;11.422;2022-10-03T15:58:46;14.50;99.90
17053;DHT22;8643;48.824;11.422;2022-10-03T16:01:19;14.70;99.90
17053;DHT22;8643;48.824;11.422;2022-10-03T16:03:52;14.70;99.90
17053;DHT22;8643;48.824;11.422;2022-10-03T16:06:26;14.50;99.90
17053;DHT22;8643;48.824;11.422;2022-10-03T16:11:42;14.00;99.90
17053;DHT22;8643;48.824;11.422;2022-10-03T16:14:22;13.80;99.90
17053;DHT22;8643;48.824;11.422;2022-10-03T16:16:55;14.20;99.90
17053;DHT22;8643;48.824;11.422;2022-10-03T16:19:30;13.60;99.90
17053;DHT22;8643;48.824;11.422;2022-10-03T16:25:00;13.20;99.90
17053;DHT22;8643;48.824;11.422;2022-10-03T16:27:38;13.10;99.90
17053;DHT22;8643;48.824;11.422;2022-10-03T16:30:19;13.10;99.90
17053;DHT22;8643;48.824;11.422;2022-10-03T16:32:57;12.80;99.90
17053;DHT22;8643;48.824;11.422;2022-10-03T16:35:33;12.80;99.90
17053;DHT22;8643;48.824;11.422;2022-10-03T16:38:07;12.70;99.90
17053;DHT22;8643;48.824;11.422;2022-10-03T16:40:52;12.50;99.90
17053;DHT22;8643;48.824;11.422;2022-10-03T16:43:25;12.40;99.90
17053;DHT22;8643;48.824;11.422;2022-10-03T16:45:59;12.30;99.90
17053;DHT22;8643;48.824;11.422;2022-10-03T16:48:33;12.20;99.90
17053;DHT22;8643;48.824;11.422;2022-10-03T16:56:30;12.00;99.90
17053;DHT22;8643;48.824;11.422;2022-10-03T16:59:10;12.00;99.90
17053;DHT22;8643;48.824;11.422;2022-10-03T17:01:44;11.90;99.90
17053;DHT22;8643;48.824;11.422;2022-10-03T17:04:21;11.80;99.90
17053;DHT22;8643;48.824;11.422;2022-10-03T17:06:55;11.70;99.90
17053;DHT22;8643;48.824;11.422;2022-10-03T17:12:05;11.30;99.90
17053;DHT22;8643;48.824;11.422;2022-10-03T17:14:41;11.20;99.90
17053;DHT22;8643;48.824;11.422;2022-10-03T17:17:22;11.00;99.90
17053;DHT22;8643;48.824;11.422;2022-10-03T17:19:58;10.90;99.90
17053;DHT22;8643;48.824;11.422;2022-10-03T17:22:36;10.80;99.90
17053;DHT22;8643;48.824;11.422;2022-10-03T17:25:33;10.60;99.90
17053;DHT22;8643;48.824;11.422;2022-10-03T17:28:13;10.50;99.90
17053;DHT22;8643;48.824;11.422;2022-10-03T17:30:52;10.40;99.90
17053;DHT22;8643;48.824;11.422;2022-10-03T17:33:33;10.30;99.90
17053;DHT22;8643;48.824;11.422;2022-10-03T17:36:50;10.10;99.90
17053;DHT22;8643;48.824;11.422;2022-10-03T17:39:44;10.00;99.90
17053;DHT22;8643;48.824;11.422;2022-10-03T17:42:30;9.90;99.90
17053;DHT22;8643;48.824;11.422;2022-10-03T17:45:15;9.90;99.90
17053;DHT22;8643;48.824;11.422;2022-10-03T17:47:56;9.90;99.90
17053;DHT22;8643;48.824;11.422;2022-10-03T17:50:36;9.80;99.90
17053;DHT22;8643;48.824;11.422;2022-10-03T17:53:19;9.70;99.90
17053;DHT22;8643;48.824;11.422;2022-10-03T17:58:26;9.50;99.90
17053;DHT22;8643;48.824;11.422;2022-10-03T18:03:40;9.40;99.90
17053;DHT22;8643;48.824;11.422;2022-10-03T18:06:35;9.40;99.90
17053;DHT22;8643;48.824;11.422;2022-10-03T18:09:20;9.40;99.90
17053;DHT22;8643;48.824;11.422;2022-10-03T18:14:49;9.30;99.90
17053;DHT22;8643;48.824;11.422;2022-10-03T18:17:53;9.30;99.90
17053;DHT22;8643;48.824;11.422;2022-10-03T18:20:44;9.30;99.90
17053;DHT22;8643;48.824;11.422;2022-10-03T18:23:19;9.20;99.90
17053;DHT22;8643;48.824;11.422;2022-10-03T18:26:24;9.20;99.90
17053;DHT22;8643;48.824;11.422;2022-10-03T18:29:07;9.30;99.90
17053;DHT22;8643;48.824;11.422;2022-10-03T18:31:48;9.30;99.90
17053;DHT22;8643;48.824;11.422;2022-10-03T18:34:25;9.50;99.90
17053;DHT22;8643;48.824;11.422;2022-10-03T18:37:16;9.50;99.90
17053;DHT22;8643;48.824;11.422;2022-10-03T18:43:04;9.40;99.90
17053;DHT22;8643;48.824;11.422;2022-10-03T18:50:54;9.40;99.90
17053;DHT22;8643;48.824;11.422;2022-10-03T18:56:08;9.30;99.90
17053;DHT22;8643;48.824;11.422;2022-10-03T18:58:41;9.30;99.90
17053;DHT22;8643;48.824;11.422;2022-10-03T19:03:56;9.10;99.90
17053;DHT22;8643;48.824;11.422;2022-10-03T19:06:28;9.00;99.90
17053;DHT22;8643;48.824;11.422;2022-10-03T19:09:11;8.90;99.90
17053;DHT22;8643;48.824;11.422;2022-10-03T19:14:26;8.70;99.90
17053;DHT22;8643;48.824;11.422;2022-10-03T19:17:13;8.50;99.90
17053;DHT22;8643;48.824;11.422;2022-10-03T19:19:52;8.50;99.90
17053;DHT22;8643;48.824;11.422;2022-10-03T19:25:03;8.50;99.90
17053;DHT22;8643;48.824;11.422;2022-10-03T19:32:53;8.60;99.90
17053;DHT22;8643;48.824;11.422;2022-10-03T19:37:59;8.40;99.90
17053;DHT22;8643;48.824;11.422;2022-10-03T19:43:32;8.20;99.90
17053;DHT22;8643;48.824;11.422;2022-10-03T19:49:16;8.30;99.90
17053;DHT22;8643;48.824;11.422;2022-10-03T19:57:41;8.50;99.90
17053;DHT22;8643;48.824;11.422;2022-10-03T20:00:23;8.60;99.90
17053;DHT22;8643;48.824;11.422;2022-10-03T20:05:36;8.70;99.90
17053;DHT22;8643;48.824;11.422;2022-10-03T20:13:32;8.80;99.90
17053;DHT22;8643;48.824;11.422;2022-10-03T20:21:02;8.70;99.90
17053;DHT22;8643;48.824;11.422;2022-10-03T20:23:39;8.70;99.90
17053;DHT22;8643;48.824;11.422;2022-10-03T20:26:17;8.70;99.90
17053;DHT22;8643;48.824;11.422;2022-10-03T20:39:32;8.20;99.90
17053;DHT22;8643;48.824;11.422;2022-10-03T20:42:09;8.10;99.90
17053;DHT22;8643;48.824;11.422;2022-10-03T20:47:49;7.90;99.90
17053;DHT22;8643;48.824;11.422;2022-10-03T20:50:25;7.80;99.90
17053;DHT22;8643;48.824;11.422;2022-10-03T20:55:31;7.70;99.90
17053;DHT22;8643;48.824;11.422;2022-10-03T20:58:13;7.70;99.90
17053;DHT22;8643;48.824;11.422;2022-10-03T21:00:52;7.70;99.90
17053;DHT22;8643;48.824;11.422;2022-10-03T21:16:25;7.80;99.90
17053;DHT22;8643;48.824;11.422;2022-10-03T21:18:59;7.80;99.90
17053;DHT22;8643;48.824;11.422;2022-10-03T21:21:33;7.70;99.90
17053;DHT22;8643;48.824;11.422;2022-10-03T21:24:14;7.80;99.90
17053;DHT22;8643;48.824;11.422;2022-10-03T21:26:51;7.70;99.90
17053;DHT22;8643;48.824;11.422;2022-10-03T21:29:27;7.60;99.90
17053;DHT22;8643;48.824;11.422;2022-10-03T21:32:10;7.50;99.90
17053;DHT22;8643;48.824;11.422;2022-10-03T21:34:52;7.40;99.90
17053;DHT22;8643;48.824;11.422;2022-10-03T21:37:34;7.30;99.90
17053;DHT22;8643;48.824;11.422;2022-10-03T21:40:20;7.20;99.90
17053;DHT22;8643;48.824;11.422;2022-10-03T21:43:18;7.10;99.90
17053;DHT22;8643;48.824;11.422;2022-10-03T21:48:40;6.90;99.90
17053;DHT22;8643;48.824;11.422;2022-10-03T21:56:45;6.50;99.90
17053;DHT22;8643;48.824;11.422;2022-10-03T21:59:39;6.40;99.90
17053;DHT22;8643;48.824;11.422;2022-10-03T22:04:58;6.30;99.90
17053;DHT22;8643;48.824;11.422;2022-10-03T22:07:35;6.20;99.90
17053;DHT22;8643;48.824;11.422;2022-10-03T22:10:15;6.10;99.90
17053;DHT22;8643;48.824;11.422;2022-10-03T22:12:49;6.20;99.90
17053;DHT22;8643;48.824;11.422;2022-10-03T22:15:26;6.10;99.90
17053;DHT22;8643;48.824;11.422;2022-10-03T22:18:07;6.10;99.90
17053;DHT22;8643;48.824;11.422;2022-10-03T22:20:49;6.00;99.90
17053;DHT22;8643;48.824;11.422;2022-10-03T22:23:31;6.00;99.90
17053;DHT22;8643;48.824;11.422;2022-10-03T22:26:13;6.00;99.90
17053;DHT22;8643;48.824;11.422;2022-10-03T22:28:53;6.00;99.90
17053;DHT22;8643;48.824;11.422;2022-10-03T22:31:32;5.90;99.90
17053;DHT22;8643;48.824;11.422;2022-10-03T22:34:16;6.00;99.90
17053;DHT22;8643;48.824;11.422;2022-10-03T22:36:55;5.90;99.90
17053;DHT22;8643;48.824;11.422;2022-10-03T22:39:25;5.90;99.90
17053;DHT22;8643;48.824;11.422;2022-10-03T22:41:56;5.80;99.90
17053;DHT22;8643;48.824;11.422;2022-10-03T22:44:30;5.80;99.90
17053;DHT22;8643;48.824;11.422;2022-10-03T22:47:04;5.80;99.90
17053;DHT22;8643;48.824;11.422;2022-10-03T22:52:17;5.60;99.90
17053;DHT22;8643;48.824;11.422;2022-10-03T22:54:50;5.60;99.90
17053;DHT22;8643;48.824;11.422;2022-10-03T22:57:21;5.60;99.90
17053;DHT22;8643;48.824;11.422;2022-10-03T23:05:01;5.50;99.90
17053;DHT22;8643;48.824;11.422;2022-10-03T23:10:46;5.40;99.90
17053;DHT22;8643;48.824;11.422;2022-10-03T23:21:30;5.30;99.90
17053;DHT22;8643;48.824;11.422;2022-10-03T23:33:46;5.40;99.90
17053;DHT22;8643;48.824;11.422;2022-10-03T23:36:22;5.40;99.90
17053;DHT22;8643;48.824;11.422;2022-10-03T23:38:53;5.40;99.90
17053;DHT22;8643;48.824;11.422;2022-10-03T23:44:38;5.40;99.90
17053;DHT22;8643;48.824;11.422;2022-10-03T23:47:18;5.40;99.90
17053;DHT22;8643;48.824;11.422;2022-10-03T23:49:50;5.30;99.90
17053;DHT22;8643;48.824;11.422;2022-10-03T23:52:23;5.30;99.90
17053;DHT22;8643;48.824;11.422;2022-10-03T23:54:55;5.20;99.90
17053;DHT22;8643;48.824;11.422;2022-10-03T23:57:33;5.20;99.90
